sensor_id;sensor_type;location;lat;lon;timestamp;temperature;humidity
17843;DHT22;69286;48.222;16.332;2023-05-10T00:00:59;12.80;72.10
17843;DHT22;69286;48.222;16.332;2023-05-10T00:03:26;12.80;72.50
17843;DHT22;69286;48.222;16.332;2023-05-10T00:05:52;12.80;72.60
17843;DHT22;69286;48.222;16.332;2023-05-10T00:08:19;12.70;72.90
17843;DHT22;69286;48.222;16.332;2023-05-10T00:10:46;12.70;73.10
17843;DHT22;69286;48.222;16.332;2023-05-10T00:13:15;12.70;73.40
17843;DHT22;69286;48.222;16.332;2023-05-10T00:15:41;12.60;73.90
17843;DHT22;69286;48.222;16.332;2023-05-10T00:18:08;12.50;74.50
17843;DHT22;69286;48.222;16.332;2023-05-10T00:20:35;12.50;75.00
17843;DHT22;69286;48.222;16.332;2023-05-10T00:23:02;12.50;75.80
17843;DHT22;69286;48.222;16.332;2023-05-10T00:25:29;12.40;76.70
17843;DHT22;69286;48.222;16.332;2023-05-10T00:27:56;12.30;77.30
17843;DHT22;69286;48.222;16.332;2023-05-10T00:30:24;12.30;77.80
17843;DHT22;69286;48.222;16.332;2023-05-10T00:32:51;12.30;78.10
17843;DHT22;69286;48.222;16.332;2023-05-10T00:35:18;12.30;78.50
17843;DHT22;69286;48.222;16.332;2023-05-10T00:37:45;12.30;78.60
17843;DHT22;69286;48.222;16.332;2023-05-10T00:40:12;12.20;78.80
17843;DHT22;69286;48.222;16.332;2023-05-10T00:42:39;12.20;79.20
17843;DHT22;69286;48.222;16.332;2023-05-10T00:45:07;12.10;79.60
17843;DHT22;69286;48.222;16.332;2023-05-10T00:47:35;12.10;79.80
17843;DHT22;69286;48.222;16.332;2023-05-10T00:50:03;12.10;80.00
17843;DHT22;69286;48.222;16.332;2023-05-10T00:52:30;12.10;80.00
17843;DHT22;69286;48.222;16.332;2023-05-10T00:54:58;12.10;80.40
17843;DHT22;69286;48.222;16.332;2023-05-10T00:57:25;12.00;80.40
17843;DHT22;69286;48.222;16.332;2023-05-10T00:59:52;12.00;80.70
17843;DHT22;69286;48.222;16.332;2023-05-10T01:02:18;12.00;81.00
17843;DHT22;69286;48.222;16.332;2023-05-10T01:04:47;12.00;81.20
17843;DHT22;69286;48.222;16.332;2023-05-10T01:07:15;12.00;81.60
17843;DHT22;69286;48.222;16.332;2023-05-10T01:09:42;11.90;81.90
17843;DHT22;69286;48.222;16.332;2023-05-10T01:12:09;11.90;82.50
17843;DHT22;69286;48.222;16.332;2023-05-10T01:14:36;11.80;82.90
17843;DHT22;69286;48.222;16.332;2023-05-10T01:17:04;11.80;83.00
17843;DHT22;69286;48.222;16.332;2023-05-10T01:19:34;11.80;83.40
17843;DHT22;69286;48.222;16.332;2023-05-10T01:22:11;11.70;83.90
17843;DHT22;69286;48.222;16.332;2023-05-10T01:25:04;11.70;84.10
17843;DHT22;69286;48.222;16.332;2023-05-10T01:27:57;11.70;84.20
17843;DHT22;69286;48.222;16.332;2023-05-10T01:30:51;11.70;84.60
17843;DHT22;69286;48.222;16.332;2023-05-10T01:33:27;11.70;84.70
17843;DHT22;69286;48.222;16.332;2023-05-10T01:36:01;11.60;84.80
17843;DHT22;69286;48.222;16.332;2023-05-10T01:38:36;11.60;84.80
17843;DHT22;69286;48.222;16.332;2023-05-10T01:41:18;11.60;85.20
17843;DHT22;69286;48.222;16.332;2023-05-10T01:43:54;11.60;85.40
17843;DHT22;69286;48.222;16.332;2023-05-10T01:46:27;11.60;85.60
17843;DHT22;69286;48.222;16.332;2023-05-10T01:48:57;11.50;86.00
17843;DHT22;69286;48.222;16.332;2023-05-10T01:51:29;11.60;86.00
17843;DHT22;69286;48.222;16.332;2023-05-10T01:54:00;11.50;86.40
17843;DHT22;69286;48.222;16.332;2023-05-10T01:56:30;11.50;86.40
17843;DHT22;69286;48.222;16.332;2023-05-10T01:58:59;11.40;86.80
17843;DHT22;69286;48.222;16.332;2023-05-10T02:01:27;11.40;87.20
17843;DHT22;69286;48.222;16.332;2023-05-10T02:03:56;11.40;87.60
17843;DHT22;69286;48.222;16.332;2023-05-10T02:06:24;11.40;87.90
17843;DHT22;69286;48.222;16.332;2023-05-10T02:08:52;11.40;87.80
17843;DHT22;69286;48.222;16.332;2023-05-10T02:11:20;11.40;87.80
17843;DHT22;69286;48.222;16.332;2023-05-10T02:13:49;11.30;88.10
17843;DHT22;69286;48.222;16.332;2023-05-10T02:16:17;11.30;88.30
17843;DHT22;69286;48.222;16.332;2023-05-10T02:18:46;11.30;88.40
17843;DHT22;69286;48.222;16.332;2023-05-10T02:21:15;11.30;88.50
17843;DHT22;69286;48.222;16.332;2023-05-10T02:23:45;11.30;88.90
17843;DHT22;69286;48.222;16.332;2023-05-10T02:26:14;11.20;89.30
17843;DHT22;69286;48.222;16.332;2023-05-10T02:28:42;11.20;89.80
17843;DHT22;69286;48.222;16.332;2023-05-10T02:31:10;11.10;90.00
17843;DHT22;69286;48.222;16.332;2023-05-10T02:33:38;11.10;90.10
17843;DHT22;69286;48.222;16.332;2023-05-10T02:36:07;11.10;90.30
17843;DHT22;69286;48.222;16.332;2023-05-10T02:38:37;11.10;90.40
17843;DHT22;69286;48.222;16.332;2023-05-10T02:41:05;11.10;90.60
17843;DHT22;69286;48.222;16.332;2023-05-10T02:43:33;11.00;90.90
17843;DHT22;69286;48.222;16.332;2023-05-10T02:46:01;11.00;90.90
17843;DHT22;69286;48.222;16.332;2023-05-10T02:48:28;11.00;91.10
17843;DHT22;69286;48.222;16.332;2023-05-10T02:51:02;11.00;91.20
17843;DHT22;69286;48.222;16.332;2023-05-10T02:53:32;10.90;91.20
17843;DHT22;69286;48.222;16.332;2023-05-10T02:56:04;10.90;91.40
17843;DHT22;69286;48.222;16.332;2023-05-10T02:58:32;10.90;91.30
17843;DHT22;69286;48.222;16.332;2023-05-10T03:01:00;10.90;91.70
17843;DHT22;69286;48.222;16.332;2023-05-10T03:03:26;10.90;91.80
17843;DHT22;69286;48.222;16.332;2023-05-10T03:05:53;10.90;92.00
17843;DHT22;69286;48.222;16.332;2023-05-10T03:08:21;10.90;92.00
17843;DHT22;69286;48.222;16.332;2023-05-10T03:10:55;10.90;92.10
17843;DHT22;69286;48.222;16.332;2023-05-10T03:13:31;10.90;92.30
17843;DHT22;69286;48.222;16.332;2023-05-10T03:16:07;10.80;92.50
17843;DHT22;69286;48.222;16.332;2023-05-10T03:18:42;10.80;92.40
17843;DHT22;69286;48.222;16.332;2023-05-10T03:21:12;10.80;92.80
17843;DHT22;69286;48.222;16.332;2023-05-10T03:23:43;10.70;93.00
17843;DHT22;69286;48.222;16.332;2023-05-10T03:26:17;10.70;93.20
17843;DHT22;69286;48.222;16.332;2023-05-10T03:28:46;10.70;93.20
17843;DHT22;69286;48.222;16.332;2023-05-10T03:31:14;10.70;93.30
17843;DHT22;69286;48.222;16.332;2023-05-10T03:33:46;10.60;93.50
17843;DHT22;69286;48.222;16.332;2023-05-10T03:36:13;10.60;93.60
17843;DHT22;69286;48.222;16.332;2023-05-10T03:38:40;10.50;93.70
17843;DHT22;69286;48.222;16.332;2023-05-10T03:41:07;10.60;94.00
17843;DHT22;69286;48.222;16.332;2023-05-10T03:43:34;10.50;94.20
17843;DHT22;69286;48.222;16.332;2023-05-10T03:46:03;10.50;94.40
17843;DHT22;69286;48.222;16.332;2023-05-10T03:48:31;10.50;94.40
17843;DHT22;69286;48.222;16.332;2023-05-10T03:50:58;10.40;94.60
17843;DHT22;69286;48.222;16.332;2023-05-10T03:53:25;10.50;94.80
17843;DHT22;69286;48.222;16.332;2023-05-10T03:55:52;10.50;94.60
17843;DHT22;69286;48.222;16.332;2023-05-10T03:58:19;10.50;94.50
17843;DHT22;69286;48.222;16.332;2023-05-10T04:00:46;10.50;94.40
17843;DHT22;69286;48.222;16.332;2023-05-10T04:03:14;10.50;94.40
17843;DHT22;69286;48.222;16.332;2023-05-10T04:05:41;10.50;94.30
17843;DHT22;69286;48.222;16.332;2023-05-10T04:08:08;10.50;94.40
17843;DHT22;69286;48.222;16.332;2023-05-10T04:10:35;10.50;94.30
17843;DHT22;69286;48.222;16.332;2023-05-10T04:13:02;10.60;94.00
17843;DHT22;69286;48.222;16.332;2023-05-10T04:15:28;10.60;93.90
17843;DHT22;69286;48.222;16.332;2023-05-10T04:17:56;10.60;94.00
17843;DHT22;69286;48.222;16.332;2023-05-10T04:20:24;10.70;93.70
17843;DHT22;69286;48.222;16.332;2023-05-10T04:22:51;10.80;93.30
17843;DHT22;69286;48.222;16.332;2023-05-10T04:25:18;10.90;93.00
17843;DHT22;69286;48.222;16.332;2023-05-10T04:27:45;11.00;92.50
17843;DHT22;69286;48.222;16.332;2023-05-10T04:30:12;11.10;92.30
17843;DHT22;69286;48.222;16.332;2023-05-10T04:32:39;11.30;91.70
17843;DHT22;69286;48.222;16.332;2023-05-10T04:35:06;11.50;90.80
17843;DHT22;69286;48.222;16.332;2023-05-10T04:37:34;11.80;90.20
17843;DHT22;69286;48.222;16.332;2023-05-10T04:40:02;12.10;88.30
17843;DHT22;69286;48.222;16.332;2023-05-10T04:42:29;12.50;86.00
17843;DHT22;69286;48.222;16.332;2023-05-10T04:44:56;13.00;83.20
17843;DHT22;69286;48.222;16.332;2023-05-10T04:47:23;13.50;79.80
17843;DHT22;69286;48.222;16.332;2023-05-10T04:49:50;13.50;79.30
17843;DHT22;69286;48.222;16.332;2023-05-10T04:52:17;13.50;78.80
17843;DHT22;69286;48.222;16.332;2023-05-10T04:54:45;13.50;78.90
17843;DHT22;69286;48.222;16.332;2023-05-10T04:57:12;14.00;76.90
17843;DHT22;69286;48.222;16.332;2023-05-10T04:59:39;14.30;74.80
17843;DHT22;69286;48.222;16.332;2023-05-10T05:02:06;14.30;74.50
17843;DHT22;69286;48.222;16.332;2023-05-10T05:04:32;14.70;73.30
17843;DHT22;69286;48.222;16.332;2023-05-10T05:06:59;15.00;71.60
17843;DHT22;69286;48.222;16.332;2023-05-10T05:09:26;15.30;70.10
17843;DHT22;69286;48.222;16.332;2023-05-10T05:11:54;15.40;69.30
17843;DHT22;69286;48.222;16.332;2023-05-10T05:14:21;15.30;69.30
17843;DHT22;69286;48.222;16.332;2023-05-10T05:16:50;15.50;68.70
17843;DHT22;69286;48.222;16.332;2023-05-10T05:19:17;15.90;67.50
17843;DHT22;69286;48.222;16.332;2023-05-10T05:21:44;16.30;66.10
17843;DHT22;69286;48.222;16.332;2023-05-10T05:24:11;16.60;64.50
17843;DHT22;69286;48.222;16.332;2023-05-10T05:26:38;16.80;63.50
17843;DHT22;69286;48.222;16.332;2023-05-10T05:29:06;17.00;62.50
17843;DHT22;69286;48.222;16.332;2023-05-10T05:31:33;17.20;61.20
17843;DHT22;69286;48.222;16.332;2023-05-10T05:34:00;17.50;60.20
17843;DHT22;69286;48.222;16.332;2023-05-10T05:36:27;17.60;59.60
17843;DHT22;69286;48.222;16.332;2023-05-10T05:38:53;17.90;58.80
17843;DHT22;69286;48.222;16.332;2023-05-10T05:41:20;18.10;58.10
17843;DHT22;69286;48.222;16.332;2023-05-10T05:43:49;18.50;57.10
17843;DHT22;69286;48.222;16.332;2023-05-10T05:46:17;18.30;57.20
17843;DHT22;69286;48.222;16.332;2023-05-10T05:48:44;18.40;57.00
17843;DHT22;69286;48.222;16.332;2023-05-10T05:51:11;18.60;56.60
17843;DHT22;69286;48.222;16.332;2023-05-10T05:53:38;18.70;56.20
17843;DHT22;69286;48.222;16.332;2023-05-10T05:56:05;18.90;55.70
17843;DHT22;69286;48.222;16.332;2023-05-10T05:58:33;18.70;56.00
17843;DHT22;69286;48.222;16.332;2023-05-10T06:01:00;18.70;56.00
17843;DHT22;69286;48.222;16.332;2023-05-10T06:03:28;18.70;55.80
17843;DHT22;69286;48.222;16.332;2023-05-10T06:05:55;18.40;56.60
17843;DHT22;69286;48.222;16.332;2023-05-10T06:08:22;18.50;56.40
17843;DHT22;69286;48.222;16.332;2023-05-10T06:10:49;18.50;56.20
17843;DHT22;69286;48.222;16.332;2023-05-10T06:13:16;18.60;56.50
17843;DHT22;69286;48.222;16.332;2023-05-10T06:15:43;18.70;55.90
17843;DHT22;69286;48.222;16.332;2023-05-10T06:18:10;18.90;55.50
17843;DHT22;69286;48.222;16.332;2023-05-10T06:20:40;19.10;55.00
17843;DHT22;69286;48.222;16.332;2023-05-10T06:23:07;18.90;55.10
17843;DHT22;69286;48.222;16.332;2023-05-10T06:25:34;19.00;55.40
17843;DHT22;69286;48.222;16.332;2023-05-10T06:28:01;19.10;55.00
17843;DHT22;69286;48.222;16.332;2023-05-10T06:30:28;19.30;54.20
17843;DHT22;69286;48.222;16.332;2023-05-10T06:32:55;19.40;54.20
17843;DHT22;69286;48.222;16.332;2023-05-10T06:35:22;19.50;53.60
17843;DHT22;69286;48.222;16.332;2023-05-10T06:37:50;19.90;53.10
17843;DHT22;69286;48.222;16.332;2023-05-10T06:40:18;20.50;51.90
17843;DHT22;69286;48.222;16.332;2023-05-10T06:42:45;20.90;50.50
17843;DHT22;69286;48.222;16.332;2023-05-10T06:45:12;20.80;50.80
17843;DHT22;69286;48.222;16.332;2023-05-10T06:47:39;21.00;49.90
17843;DHT22;69286;48.222;16.332;2023-05-10T06:50:07;21.00;49.90
17843;DHT22;69286;48.222;16.332;2023-05-10T06:52:34;21.20;49.60
17843;DHT22;69286;48.222;16.332;2023-05-10T06:55:03;21.30;49.20
17843;DHT22;69286;48.222;16.332;2023-05-10T06:57:30;21.50;48.50
17843;DHT22;69286;48.222;16.332;2023-05-10T06:59:57;21.60;48.10
17843;DHT22;69286;48.222;16.332;2023-05-10T07:02:24;21.30;48.40
17843;DHT22;69286;48.222;16.332;2023-05-10T07:04:51;21.20;48.90
17843;DHT22;69286;48.222;16.332;2023-05-10T07:07:18;21.30;48.40
17843;DHT22;69286;48.222;16.332;2023-05-10T07:09:45;21.50;48.10
17843;DHT22;69286;48.222;16.332;2023-05-10T07:12:14;22.00;47.10
17843;DHT22;69286;48.222;16.332;2023-05-10T07:14:41;22.30;47.20
17843;DHT22;69286;48.222;16.332;2023-05-10T07:17:08;23.10;46.10
17843;DHT22;69286;48.222;16.332;2023-05-10T07:19:34;23.80;44.70
17843;DHT22;69286;48.222;16.332;2023-05-10T07:22:01;23.70;44.30
17843;DHT22;69286;48.222;16.332;2023-05-10T07:24:28;23.40;45.30
17843;DHT22;69286;48.222;16.332;2023-05-10T07:26:56;23.60;45.00
17843;DHT22;69286;48.222;16.332;2023-05-10T07:29:25;24.20;44.40
17843;DHT22;69286;48.222;16.332;2023-05-10T07:31:52;24.30;43.60
17843;DHT22;69286;48.222;16.332;2023-05-10T07:34:19;24.90;43.20
17843;DHT22;69286;48.222;16.332;2023-05-10T07:36:46;25.00;42.70
17843;DHT22;69286;48.222;16.332;2023-05-10T07:39:13;24.80;42.60
17843;DHT22;69286;48.222;16.332;2023-05-10T07:41:40;24.00;44.00
17843;DHT22;69286;48.222;16.332;2023-05-10T07:44:06;23.90;44.50
17843;DHT22;69286;48.222;16.332;2023-05-10T07:46:35;23.40;44.40
17843;DHT22;69286;48.222;16.332;2023-05-10T07:49:02;23.40;44.60
17843;DHT22;69286;48.222;16.332;2023-05-10T07:51:28;24.30;43.60
17843;DHT22;69286;48.222;16.332;2023-05-10T07:53:55;24.70;42.70
17843;DHT22;69286;48.222;16.332;2023-05-10T07:56:24;25.00;42.20
17843;DHT22;69286;48.222;16.332;2023-05-10T07:58:53;24.40;43.20
17843;DHT22;69286;48.222;16.332;2023-05-10T08:01:20;24.30;43.50
17843;DHT22;69286;48.222;16.332;2023-05-10T08:03:49;24.90;41.90
17843;DHT22;69286;48.222;16.332;2023-05-10T08:06:19;24.50;42.40
17843;DHT22;69286;48.222;16.332;2023-05-10T08:08:47;24.30;43.40
17843;DHT22;69286;48.222;16.332;2023-05-10T08:11:16;24.80;42.50
17843;DHT22;69286;48.222;16.332;2023-05-10T08:13:43;24.60;42.80
17843;DHT22;69286;48.222;16.332;2023-05-10T08:16:09;24.10;43.60
17843;DHT22;69286;48.222;16.332;2023-05-10T08:18:37;23.90;43.80
17843;DHT22;69286;48.222;16.332;2023-05-10T08:21:05;23.80;44.10
17843;DHT22;69286;48.222;16.332;2023-05-10T08:23:32;24.10;44.10
17843;DHT22;69286;48.222;16.332;2023-05-10T08:25:59;23.90;43.60
17843;DHT22;69286;48.222;16.332;2023-05-10T08:28:26;23.30;43.40
17843;DHT22;69286;48.222;16.332;2023-05-10T08:30:53;23.30;43.70
17843;DHT22;69286;48.222;16.332;2023-05-10T08:33:20;23.00;45.10
17843;DHT22;69286;48.222;16.332;2023-05-10T08:35:47;22.50;45.90
17843;DHT22;69286;48.222;16.332;2023-05-10T08:38:15;22.00;47.30
17843;DHT22;69286;48.222;16.332;2023-05-10T08:40:44;21.60;47.90
17843;DHT22;69286;48.222;16.332;2023-05-10T08:43:13;21.40;48.80
17843;DHT22;69286;48.222;16.332;2023-05-10T08:45:42;22.30;47.50
17843;DHT22;69286;48.222;16.332;2023-05-10T08:48:11;22.70;46.50
17843;DHT22;69286;48.222;16.332;2023-05-10T08:50:38;22.70;46.50
17843;DHT22;69286;48.222;16.332;2023-05-10T08:53:09;23.30;46.30
17843;DHT22;69286;48.222;16.332;2023-05-10T08:55:38;24.60;44.00
17843;DHT22;69286;48.222;16.332;2023-05-10T08:58:08;24.30;44.10
17843;DHT22;69286;48.222;16.332;2023-05-10T09:00:36;23.90;45.00
17843;DHT22;69286;48.222;16.332;2023-05-10T09:03:04;24.30;44.20
17843;DHT22;69286;48.222;16.332;2023-05-10T09:05:32;24.40;43.70
17843;DHT22;69286;48.222;16.332;2023-05-10T09:07:59;24.10;44.00
17843;DHT22;69286;48.222;16.332;2023-05-10T09:10:26;23.60;44.60
17843;DHT22;69286;48.222;16.332;2023-05-10T09:12:56;23.70;44.80
17843;DHT22;69286;48.222;16.332;2023-05-10T09:15:24;22.80;46.40
17843;DHT22;69286;48.222;16.332;2023-05-10T09:17:50;23.00;46.10
17843;DHT22;69286;48.222;16.332;2023-05-10T09:20:18;23.00;46.10
17843;DHT22;69286;48.222;16.332;2023-05-10T09:22:44;23.10;47.70
17843;DHT22;69286;48.222;16.332;2023-05-10T09:25:12;21.30;49.40
17843;DHT22;69286;48.222;16.332;2023-05-10T09:27:41;20.90;51.00
17843;DHT22;69286;48.222;16.332;2023-05-10T09:30:10;20.20;51.30
17843;DHT22;69286;48.222;16.332;2023-05-10T09:32:38;20.20;51.50
17843;DHT22;69286;48.222;16.332;2023-05-10T09:35:09;20.40;50.90
17843;DHT22;69286;48.222;16.332;2023-05-10T09:37:36;20.40;50.60
17843;DHT22;69286;48.222;16.332;2023-05-10T09:40:07;20.30;50.00
17843;DHT22;69286;48.222;16.332;2023-05-10T09:42:37;19.90;49.70
17843;DHT22;69286;48.222;16.332;2023-05-10T09:45:05;19.60;50.70
17843;DHT22;69286;48.222;16.332;2023-05-10T09:47:35;20.00;50.70
17843;DHT22;69286;48.222;16.332;2023-05-10T09:50:03;20.30;50.00
17843;DHT22;69286;48.222;16.332;2023-05-10T09:52:46;20.60;50.20
17843;DHT22;69286;48.222;16.332;2023-05-10T09:55:13;20.60;50.00
17843;DHT22;69286;48.222;16.332;2023-05-10T09:57:41;20.60;50.00
17843;DHT22;69286;48.222;16.332;2023-05-10T10:00:09;20.60;51.10
17843;DHT22;69286;48.222;16.332;2023-05-10T10:02:38;20.20;50.80
17843;DHT22;69286;48.222;16.332;2023-05-10T10:05:07;20.00;50.70
17843;DHT22;69286;48.222;16.332;2023-05-10T10:07:34;19.70;51.40
17843;DHT22;69286;48.222;16.332;2023-05-10T10:10:01;19.80;51.50
17843;DHT22;69286;48.222;16.332;2023-05-10T10:12:30;19.90;51.30
17843;DHT22;69286;48.222;16.332;2023-05-10T10:14:59;19.80;51.20
17843;DHT22;69286;48.222;16.332;2023-05-10T10:17:27;19.80;51.10
17843;DHT22;69286;48.222;16.332;2023-05-10T10:19:57;19.90;51.10
17843;DHT22;69286;48.222;16.332;2023-05-10T10:22:24;20.00;50.60
17843;DHT22;69286;48.222;16.332;2023-05-10T10:24:51;19.80;51.00
17843;DHT22;69286;48.222;16.332;2023-05-10T10:27:23;19.60;51.60
17843;DHT22;69286;48.222;16.332;2023-05-10T10:30:02;19.80;51.20
17843;DHT22;69286;48.222;16.332;2023-05-10T10:32:54;19.80;51.20
17843;DHT22;69286;48.222;16.332;2023-05-10T10:35:28;19.60;51.20
17843;DHT22;69286;48.222;16.332;2023-05-10T10:37:56;19.60;50.80
17843;DHT22;69286;48.222;16.332;2023-05-10T10:40:25;19.60;51.10
17843;DHT22;69286;48.222;16.332;2023-05-10T10:42:52;19.40;51.50
17843;DHT22;69286;48.222;16.332;2023-05-10T10:45:21;19.30;51.30
17843;DHT22;69286;48.222;16.332;2023-05-10T10:47:48;19.40;52.10
17843;DHT22;69286;48.222;16.332;2023-05-10T10:50:17;19.40;51.90
17843;DHT22;69286;48.222;16.332;2023-05-10T10:52:45;19.50;51.90
17843;DHT22;69286;48.222;16.332;2023-05-10T10:55:17;19.60;52.00
17843;DHT22;69286;48.222;16.332;2023-05-10T10:57:48;19.50;52.20
17843;DHT22;69286;48.222;16.332;2023-05-10T11:00:35;19.50;52.30
17843;DHT22;69286;48.222;16.332;2023-05-10T11:03:04;19.80;51.10
17843;DHT22;69286;48.222;16.332;2023-05-10T11:05:38;19.80;50.80
17843;DHT22;69286;48.222;16.332;2023-05-10T11:08:12;19.70;51.10
17843;DHT22;69286;48.222;16.332;2023-05-10T11:10:48;19.60;51.60
17843;DHT22;69286;48.222;16.332;2023-05-10T11:13:27;19.40;52.50
17843;DHT22;69286;48.222;16.332;2023-05-10T11:15:54;19.30;52.30
17843;DHT22;69286;48.222;16.332;2023-05-10T11:18:25;19.40;52.30
17843;DHT22;69286;48.222;16.332;2023-05-10T11:20:52;19.60;52.00
17843;DHT22;69286;48.222;16.332;2023-05-10T11:23:20;19.60;51.90
17843;DHT22;69286;48.222;16.332;2023-05-10T11:25:48;19.80;51.20
17843;DHT22;69286;48.222;16.332;2023-05-10T11:28:17;19.60;51.20
17843;DHT22;69286;48.222;16.332;2023-05-10T11:30:45;19.50;51.50
17843;DHT22;69286;48.222;16.332;2023-05-10T11:33:15;19.40;52.30
17843;DHT22;69286;48.222;16.332;2023-05-10T11:35:43;19.40;52.00
17843;DHT22;69286;48.222;16.332;2023-05-10T11:38:11;19.40;51.80
17843;DHT22;69286;48.222;16.332;2023-05-10T11:40:40;19.00;52.30
17843;DHT22;69286;48.222;16.332;2023-05-10T11:43:08;19.00;52.60
17843;DHT22;69286;48.222;16.332;2023-05-10T11:45:36;19.20;52.60
17843;DHT22;69286;48.222;16.332;2023-05-10T11:48:03;19.50;52.30
17843;DHT22;69286;48.222;16.332;2023-05-10T11:50:30;19.30;52.30
17843;DHT22;69286;48.222;16.332;2023-05-10T11:52:57;19.20;52.40
17843;DHT22;69286;48.222;16.332;2023-05-10T11:55:25;19.30;52.80
17843;DHT22;69286;48.222;16.332;2023-05-10T11:57:54;19.40;52.30
17843;DHT22;69286;48.222;16.332;2023-05-10T12:00:21;19.40;52.10
17843;DHT22;69286;48.222;16.332;2023-05-10T12:02:48;19.20;52.30
17843;DHT22;69286;48.222;16.332;2023-05-10T12:05:15;19.20;52.40
17843;DHT22;69286;48.222;16.332;2023-05-10T12:07:42;19.10;51.80
17843;DHT22;69286;48.222;16.332;2023-05-10T12:10:11;19.20;51.20
17843;DHT22;69286;48.222;16.332;2023-05-10T12:12:40;19.40;52.00
17843;DHT22;69286;48.222;16.332;2023-05-10T12:15:18;19.60;50.80
17843;DHT22;69286;48.222;16.332;2023-05-10T12:17:46;19.70;50.20
17843;DHT22;69286;48.222;16.332;2023-05-10T12:20:14;19.80;49.90
17843;DHT22;69286;48.222;16.332;2023-05-10T12:22:44;19.60;49.90
17843;DHT22;69286;48.222;16.332;2023-05-10T12:25:11;19.60;50.60
17843;DHT22;69286;48.222;16.332;2023-05-10T12:27:38;19.60;50.40
17843;DHT22;69286;48.222;16.332;2023-05-10T12:30:06;19.70;51.20
17843;DHT22;69286;48.222;16.332;2023-05-10T12:32:41;19.70;49.80
17843;DHT22;69286;48.222;16.332;2023-05-10T12:35:08;19.70;50.10
17843;DHT22;69286;48.222;16.332;2023-05-10T12:37:36;19.80;50.10
17843;DHT22;69286;48.222;16.332;2023-05-10T12:40:06;19.90;49.40
17843;DHT22;69286;48.222;16.332;2023-05-10T12:42:35;19.90;48.90
17843;DHT22;69286;48.222;16.332;2023-05-10T12:45:02;19.80;49.60
17843;DHT22;69286;48.222;16.332;2023-05-10T12:47:29;19.90;49.70
17843;DHT22;69286;48.222;16.332;2023-05-10T12:50:00;19.80;49.70
17843;DHT22;69286;48.222;16.332;2023-05-10T12:52:28;19.80;49.10
17843;DHT22;69286;48.222;16.332;2023-05-10T12:54:55;19.90;48.20
17843;DHT22;69286;48.222;16.332;2023-05-10T12:57:22;20.00;48.40
17843;DHT22;69286;48.222;16.332;2023-05-10T12:59:49;20.10;48.60
17843;DHT22;69286;48.222;16.332;2023-05-10T13:02:16;20.10;48.80
17843;DHT22;69286;48.222;16.332;2023-05-10T13:04:43;20.00;49.60
17843;DHT22;69286;48.222;16.332;2023-05-10T13:07:13;20.00;49.90
17843;DHT22;69286;48.222;16.332;2023-05-10T13:09:40;20.10;50.20
17843;DHT22;69286;48.222;16.332;2023-05-10T13:12:07;20.10;49.90
17843;DHT22;69286;48.222;16.332;2023-05-10T13:14:34;20.20;49.30
17843;DHT22;69286;48.222;16.332;2023-05-10T13:17:01;20.20;48.80
17843;DHT22;69286;48.222;16.332;2023-05-10T13:19:28;20.10;48.70
17843;DHT22;69286;48.222;16.332;2023-05-10T13:21:54;20.10;49.10
17843;DHT22;69286;48.222;16.332;2023-05-10T13:24:23;20.00;50.20
17843;DHT22;69286;48.222;16.332;2023-05-10T13:26:50;19.80;50.60
17843;DHT22;69286;48.222;16.332;2023-05-10T13:29:16;19.70;50.40
17843;DHT22;69286;48.222;16.332;2023-05-10T13:31:44;19.70;50.90
17843;DHT22;69286;48.222;16.332;2023-05-10T13:34:11;19.80;50.90
17843;DHT22;69286;48.222;16.332;2023-05-10T13:36:38;19.50;51.30
17843;DHT22;69286;48.222;16.332;2023-05-10T13:39:05;19.50;51.40
17843;DHT22;69286;48.222;16.332;2023-05-10T13:41:34;19.40;51.50
17843;DHT22;69286;48.222;16.332;2023-05-10T13:44:01;19.50;51.50
17843;DHT22;69286;48.222;16.332;2023-05-10T13:46:28;19.50;51.60
17843;DHT22;69286;48.222;16.332;2023-05-10T13:48:55;19.50;51.80
17843;DHT22;69286;48.222;16.332;2023-05-10T13:51:22;19.40;51.80
17843;DHT22;69286;48.222;16.332;2023-05-10T13:53:49;19.60;51.40
17843;DHT22;69286;48.222;16.332;2023-05-10T13:56:16;19.70;51.00
17843;DHT22;69286;48.222;16.332;2023-05-10T13:58:44;19.80;50.60
17843;DHT22;69286;48.222;16.332;2023-05-10T14:01:12;19.70;50.10
17843;DHT22;69286;48.222;16.332;2023-05-10T14:03:39;19.70;50.30
17843;DHT22;69286;48.222;16.332;2023-05-10T14:06:06;19.80;49.80
17843;DHT22;69286;48.222;16.332;2023-05-10T14:08:34;19.80;49.40
17843;DHT22;69286;48.222;16.332;2023-05-10T14:11:01;19.70;49.60
17843;DHT22;69286;48.222;16.332;2023-05-10T14:13:28;19.80;49.50
17843;DHT22;69286;48.222;16.332;2023-05-10T14:15:56;19.90;49.00
17843;DHT22;69286;48.222;16.332;2023-05-10T14:18:25;20.00;48.80
17843;DHT22;69286;48.222;16.332;2023-05-10T14:20:53;19.80;49.00
17843;DHT22;69286;48.222;16.332;2023-05-10T14:23:21;19.90;48.60
17843;DHT22;69286;48.222;16.332;2023-05-10T14:25:50;19.90;48.40
17843;DHT22;69286;48.222;16.332;2023-05-10T14:28:17;19.90;48.40
17843;DHT22;69286;48.222;16.332;2023-05-10T14:30:45;20.00;48.30
17843;DHT22;69286;48.222;16.332;2023-05-10T14:33:14;20.10;48.20
17843;DHT22;69286;48.222;16.332;2023-05-10T14:35:41;20.20;47.50
17843;DHT22;69286;48.222;16.332;2023-05-10T14:38:08;20.10;47.80
17843;DHT22;69286;48.222;16.332;2023-05-10T14:40:36;20.10;47.80
17843;DHT22;69286;48.222;16.332;2023-05-10T14:43:03;20.10;47.90
17843;DHT22;69286;48.222;16.332;2023-05-10T14:45:30;20.10;48.00
17843;DHT22;69286;48.222;16.332;2023-05-10T14:47:57;20.00;48.10
17843;DHT22;69286;48.222;16.332;2023-05-10T14:50:25;19.90;48.20
17843;DHT22;69286;48.222;16.332;2023-05-10T14:52:52;19.90;48.30
17843;DHT22;69286;48.222;16.332;2023-05-10T14:55:19;19.90;48.60
17843;DHT22;69286;48.222;16.332;2023-05-10T14:57:46;19.90;46.80
17843;DHT22;69286;48.222;16.332;2023-05-10T15:00:16;19.90;46.90
17843;DHT22;69286;48.222;16.332;2023-05-10T15:02:44;20.00;47.00
17843;DHT22;69286;48.222;16.332;2023-05-10T15:05:11;20.00;46.70
17843;DHT22;69286;48.222;16.332;2023-05-10T15:07:40;20.10;46.30
17843;DHT22;69286;48.222;16.332;2023-05-10T15:10:09;20.20;46.20
17843;DHT22;69286;48.222;16.332;2023-05-10T15:12:36;20.30;46.10
17843;DHT22;69286;48.222;16.332;2023-05-10T15:15:04;20.10;46.00
17843;DHT22;69286;48.222;16.332;2023-05-10T15:17:31;19.90;46.30
17843;DHT22;69286;48.222;16.332;2023-05-10T15:19:58;19.90;47.10
17843;DHT22;69286;48.222;16.332;2023-05-10T15:22:25;19.90;47.40